createdAt,value
2022-10-28T00:02:01.428Z,72.14
2022-10-28T00:07:03.171Z,72.24
2022-10-28T00:12:04.602Z,72.15
2022-10-28T00:17:05.982Z,72.72
2022-10-28T00:22:07.375Z,73.24
2022-10-28T00:27:08.759Z,73.25
2022-10-28T00:32:10.084Z,72.84
2022-10-28T00:37:11.428Z,72.64
2022-10-28T00:42:17.775Z,72.67
2022-10-28T00:47:25.406Z,72.48
2022-10-28T00:52:30.080Z,72.47
2022-10-28T00:57:35.122Z,72.59
2022-10-28T01:02:44.235Z,72.55
2022-10-28T01:07:45.808Z,72.61
2022-10-28T01:13:00.651Z,72.65
2022-10-28T01:18:32.166Z,72.65
2022-10-28T01:23:45.784Z,72.65
2022-10-28T01:29:15.249Z,72.70
2022-10-28T01:34:54.114Z,73.05
2022-10-28T01:40:08.761Z,72.89
2022-10-28T01:45:17.299Z,73.42
2022-10-28T01:50:25.039Z,73.14
2022-10-28T01:55:40.087Z,73.03
2022-10-28T02:00:44.171Z,72.89
2022-10-28T02:05:46.736Z,72.73
2022-10-28T02:11:03.095Z,72.81
2022-10-28T02:16:30.480Z,72.75
2022-10-28T02:22:15.624Z,72.64
2022-10-28T02:27:30.926Z,72.55
2022-10-28T02:32:42.614Z,73.06
2022-10-28T02:37:46.556Z,72.92
2022-10-28T02:42:52.638Z,72.56
2022-10-28T02:47:58.447Z,73.42
2022-10-28T02:53:04.439Z,73.46
2022-10-28T02:58:06.396Z,73.40
2022-10-28T03:03:07.735Z,73.32
2022-10-28T03:08:09.148Z,73.41
2022-10-28T03:13:10.571Z,73.70
2022-10-28T03:18:11.922Z,74.10
2022-10-28T03:23:13.292Z,73.95
2022-10-28T03:28:14.673Z,73.64
2022-10-28T03:33:16.114Z,73.61
2022-10-28T03:38:17.499Z,74.22
2022-10-28T03:43:18.906Z,73.96
2022-10-28T03:48:20.245Z,74.43
2022-10-28T03:53:25.122Z,74.82
2022-10-28T03:58:28.905Z,74.66
2022-10-28T04:03:30.257Z,74.75
2022-10-28T04:08:31.605Z,75.42
2022-10-28T04:13:33.064Z,76.41
2022-10-28T04:18:35.462Z,76.75
2022-10-28T04:23:36.915Z,76.64
2022-10-28T04:28:38.292Z,76.13
2022-10-28T04:33:39.719Z,76.10
2022-10-28T04:38:41.121Z,76.19
2022-10-28T04:43:42.496Z,75.83
2022-10-28T04:48:43.845Z,75.62
2022-10-28T04:53:45.172Z,75.54
2022-10-28T04:58:47.168Z,75.20
2022-10-28T05:03:48.503Z,75.25
2022-10-28T05:08:49.919Z,75.27
2022-10-28T05:13:53.053Z,74.70
2022-10-28T05:18:54.449Z,75.40
2022-10-28T05:23:55.825Z,76.20
2022-10-28T05:28:57.141Z,76.44
2022-10-28T05:33:58.468Z,75.74
2022-10-28T05:38:59.807Z,75.48
2022-10-28T05:44:01.272Z,75.06
2022-10-28T05:49:02.612Z,75.01
2022-10-28T05:54:05.394Z,75.21
2022-10-28T05:59:06.751Z,75.24
2022-10-28T06:04:08.158Z,75.27
2022-10-28T06:09:09.598Z,75.22
2022-10-28T06:14:09.430Z,75.39
2022-10-28T06:19:10.837Z,75.16
2022-10-28T06:24:13.278Z,75.45
2022-10-28T06:29:14.688Z,75.64
2022-10-28T06:34:16.274Z,75.20
2022-10-28T06:39:17.667Z,75.05
2022-10-28T06:44:19.025Z,74.99
2022-10-28T06:49:22.075Z,74.85
2022-10-28T06:54:23.504Z,74.89
2022-10-28T06:59:24.950Z,74.99
2022-10-28T07:04:26.282Z,75.05
2022-10-28T07:09:27.693Z,75.08
2022-10-28T07:14:29.104Z,74.83
2022-10-28T07:19:30.946Z,74.76
2022-10-28T07:24:32.331Z,74.55
2022-10-28T07:29:33.674Z,74.82
2022-10-28T07:34:35.029Z,74.65
2022-10-28T07:44:39.354Z,74.78
2022-10-28T07:49:40.777Z,74.57
2022-10-28T07:54:42.165Z,74.64
2022-10-28T07:59:43.546Z,74.61
2022-10-28T08:04:45.064Z,74.59
2022-10-28T08:09:46.383Z,74.48
2022-10-28T08:14:47.718Z,74.67
2022-10-28T08:19:49.065Z,74.24
2022-10-28T08:24:50.411Z,74.04
2022-10-28T08:29:53.284Z,74.05
2022-10-28T08:34:54.636Z,74.06
2022-10-28T08:39:55.984Z,73.71
2022-10-28T08:45:15.786Z,73.57
2022-10-28T08:50:20.360Z,73.59
2022-10-28T08:55:28.908Z,73.29
2022-10-28T09:00:35.393Z,72.89
2022-10-28T09:05:38.141Z,72.86
2022-10-28T09:10:54.946Z,72.65
2022-10-28T09:16:23.124Z,72.70
2022-10-28T09:21:37.320Z,72.48
2022-10-28T09:27:13.845Z,72.37
2022-10-28T09:32:29.645Z,72.04
2022-10-28T09:37:37.437Z,71.93
2022-10-28T09:43:01.947Z,71.62
2022-10-28T09:48:22.682Z,70.82
2022-10-28T09:53:43.894Z,70.29
2022-10-28T09:58:47.183Z,69.55
2022-10-28T10:03:50.526Z,68.75
2022-10-28T10:08:55.129Z,67.82
2022-10-28T10:13:59.830Z,66.69
2022-10-28T10:19:05.054Z,65.45
2022-10-28T10:24:22.338Z,65.24
2022-10-28T10:29:24.437Z,64.33
2022-10-28T10:34:27.255Z,63.35
2022-10-28T10:39:36.426Z,62.63
2022-10-28T10:44:37.755Z,62.63
2022-10-28T10:49:39.209Z,61.87
2022-10-28T10:54:45.822Z,61.10
2022-10-28T10:59:49.468Z,60.59
2022-10-28T11:04:53.641Z,60.18
2022-10-28T11:09:55.709Z,58.70
2022-10-28T11:15:01.953Z,58.04
2022-10-28T11:20:38.091Z,57.45
2022-10-28T11:25:46.746Z,56.74
2022-10-28T11:31:12.498Z,55.91
2022-10-28T11:36:26.423Z,55.14
2022-10-28T11:41:33.765Z,55.02
2022-10-28T11:46:43.433Z,54.16
2022-10-28T11:52:03.595Z,54.10
2022-10-28T11:57:13.164Z,53.73
2022-10-28T12:02:54.155Z,53.64
2022-10-28T12:08:14.334Z,52.97
2022-10-28T12:13:49.435Z,52.61
2022-10-28T12:18:58.965Z,52.41
2022-10-28T12:24:00.662Z,51.79
2022-10-28T12:29:05.154Z,51.53
2022-10-28T12:34:12.996Z,50.37
2022-10-28T12:39:26.422Z,49.95
2022-10-28T12:44:28.770Z,49.54
2022-10-28T12:49:46.160Z,49.30
2022-10-28T12:55:22.122Z,48.94
2022-10-28T13:00:31.731Z,48.68
2022-10-28T13:05:45.204Z,48.18
2022-10-28T13:10:57.844Z,47.76
2022-10-28T13:16:15.666Z,47.51
2022-10-28T13:21:50.927Z,47.58
2022-10-28T13:26:52.551Z,47.37
2022-10-28T13:31:55.082Z,48.08
2022-10-28T13:36:59.372Z,47.75
2022-10-28T13:42:12.847Z,47.45
2022-10-28T13:47:14.161Z,47.36
2022-10-28T13:52:20.677Z,47.45
2022-10-28T13:57:29.915Z,47.57
2022-10-28T14:02:46.317Z,48.28
2022-10-28T14:07:55.193Z,48.99
2022-10-28T14:18:42.213Z,49.25
2022-10-28T14:23:43.764Z,49.93
2022-10-28T14:28:45.069Z,50.35
2022-10-28T14:33:55.235Z,50.33
2022-10-28T14:39:35.249Z,50.41
2022-10-28T14:44:59.790Z,50.60
2022-10-28T14:50:01.841Z,50.49
2022-10-28T14:55:07.031Z,50.63
2022-10-28T15:00:16.602Z,51.29
2022-10-28T15:05:20.416Z,51.22
2022-10-28T15:10:31.333Z,52.12
2022-10-28T15:15:36.946Z,52.14
2022-10-28T15:20:38.403Z,52.23
2022-10-28T15:25:39.791Z,52.58
2022-10-28T15:30:46.348Z,52.60
2022-10-28T15:35:48.577Z,53.49
2022-10-28T15:40:50.119Z,53.88
2022-10-28T15:45:51.998Z,54.21
2022-10-28T15:51:12.902Z,54.75
2022-10-28T15:56:14.216Z,54.79
2022-10-28T16:01:51.529Z,54.92
2022-10-28T16:06:57.892Z,55.33
2022-10-28T16:12:03.354Z,55.76
2022-10-28T16:17:09.344Z,55.98
2022-10-28T16:22:14.205Z,56.04
2022-10-28T16:27:24.576Z,56.45
2022-10-28T16:32:35.333Z,57.09
2022-10-28T16:37:43.359Z,57.48
2022-10-28T16:42:46.807Z,58.02
2022-10-28T16:47:48.159Z,58.79
2022-10-28T16:52:49.509Z,59.28
2022-10-28T16:57:50.904Z,60.01
2022-10-28T17:02:53.947Z,60.56
2022-10-28T17:07:56.227Z,60.88
2022-10-28T17:12:58.154Z,61.32
2022-10-28T17:17:59.713Z,61.82
2022-10-28T17:23:01.187Z,62.00
2022-10-28T17:28:02.957Z,62.38
2022-10-28T17:33:04.360Z,62.86
2022-10-28T17:38:05.715Z,63.24
2022-10-28T17:43:07.106Z,63.40
2022-10-28T17:48:08.532Z,63.63
2022-10-28T17:53:10.680Z,64.31
2022-10-28T17:58:12.036Z,64.50
2022-10-28T18:03:13.400Z,64.84
2022-10-28T18:08:14.777Z,65.01
2022-10-28T18:13:16.133Z,65.37
2022-10-28T18:18:17.469Z,65.87
2022-10-28T18:23:18.848Z,65.96
2022-10-28T18:28:22.809Z,66.06
2022-10-28T18:33:24.190Z,66.40
2022-10-28T18:38:25.561Z,66.68
2022-10-28T18:43:27.125Z,66.79
2022-10-28T18:48:29.774Z,66.97
2022-10-28T18:53:31.104Z,67.21
2022-10-28T18:58:32.933Z,67.58
2022-10-28T19:03:34.373Z,67.67
2022-10-28T19:08:35.746Z,67.74
2022-10-28T19:13:39.251Z,67.87
2022-10-28T19:18:40.695Z,68.05
2022-10-28T19:23:43.295Z,68.01
2022-10-28T19:28:47.072Z,68.03
2022-10-28T19:33:49.249Z,68.03
2022-10-28T19:38:55.156Z,67.96
2022-10-28T19:44:01.750Z,67.84
2022-10-28T19:49:05.614Z,67.95
2022-10-28T19:54:12.192Z,68.18
2022-10-28T19:59:13.577Z,68.16
2022-10-28T20:04:14.951Z,67.97
2022-10-28T20:09:16.394Z,68.09
2022-10-28T20:14:17.853Z,67.77
2022-10-28T20:19:19.283Z,67.82
2022-10-28T20:24:20.607Z,67.92
2022-10-28T20:29:22.018Z,67.83
2022-10-28T20:34:23.537Z,68.04
2022-10-28T20:39:25.970Z,68.03
2022-10-28T20:44:27.570Z,67.96
2022-10-28T20:49:28.991Z,67.83
2022-10-28T20:54:30.314Z,67.99
2022-10-28T20:59:31.678Z,68.14
2022-10-28T21:04:33.171Z,68.45
2022-10-28T21:09:34.509Z,68.71
2022-10-28T21:14:35.829Z,68.51
2022-10-28T21:19:37.203Z,68.53
2022-10-28T21:24:38.548Z,68.15
2022-10-28T21:29:39.965Z,68.45
2022-10-28T21:34:41.378Z,68.51
2022-10-28T21:39:42.761Z,68.61
2022-10-28T21:44:44.370Z,68.68
2022-10-28T21:49:46.244Z,68.91
2022-10-28T21:54:47.582Z,69.14
2022-10-28T21:59:49.786Z,69.39
2022-10-28T22:04:51.278Z,69.37
2022-10-28T22:09:52.662Z,69.36
2022-10-28T22:14:54.052Z,69.61
2022-10-28T22:19:55.418Z,69.82
2022-10-28T22:24:56.812Z,69.92
2022-10-28T22:29:58.149Z,70.06
2022-10-28T22:34:59.556Z,70.38
2022-10-28T22:40:00.926Z,70.38
2022-10-28T22:45:02.298Z,70.41
2022-10-28T22:50:03.889Z,70.41
2022-10-28T22:55:05.780Z,70.58
2022-10-28T23:00:07.968Z,70.74
2022-10-28T23:05:09.545Z,70.96
2022-10-28T23:10:10.888Z,70.89
2022-10-28T23:15:12.253Z,70.74
2022-10-28T23:20:13.671Z,70.68
2022-10-28T23:25:15.846Z,70.91
2022-10-28T23:30:17.359Z,70.78
2022-10-28T23:35:18.818Z,71.20
2022-10-28T23:40:20.174Z,71.35
2022-10-28T23:45:21.538Z,71.32
2022-10-28T23:50:22.884Z,71.37
2022-10-28T23:55:24.214Z,71.07
